默认 日期 大小 文件数 浏览量 最新下载 xml
2025 web磁力链接相关资源由用户搜索指令自动获取,结果来源于网络,本站不存储任何资料,亦不承担任何责任,请于24小时内删除,搜索到75069个磁力,显示前4000条数据,用时37ms。
    ... , "47BT.完美伴侣.2025.WEB-DL.2160p.10Bit.DV.HDR10Plus ... }, "47BT.完美伴侣.2025.WEB-DL.2160p.10Bit.DV.HDR10Plus ...
创建时间: 2025-02-24 10:55:51 大小:8.83 GB 文件数量:6 热度:17 最近下载:2025-09-15 10:50:03
    ... романс. 2025. WEB-DLRip.Files-x.avi": 701544448, "02. Ополченский романс. 2025. WEB-DLRip ... .Files-x.avi": 725387264, "03. Ополченский романс. 2025. WEB-DLRip ... .Files-x.avi": 701976576, "04. Ополченский романс. 2025. WEB-DLRip ...
创建时间: 2025-02-24 13:12:50 大小:3.83 GB 文件数量:6 热度:3 最近下载:2025-03-09 04:46:04
    {"Importante Leeme!.vbs": 213, "Descargar Películas, Series y Animes...url": 50, "Harley.Quinn.S05E06.2025.WEB-DL.1080p-Dual-Lat.mkv": 1102928085}
创建时间: 2025-02-24 13:28:11 大小:1.03 GB 文件数量:3 热度:3 最近下载:2025-03-23 22:59:02
    {"Importante Leeme!.vbs": 213, "Descargar Películas, Series y Animes...url": 50, "Espíritus.en.la.Escuela.S02E05.2025.WEB-DL.1080p-Dual-Lat.mkv": 1429937400}
创建时间: 2025-02-24 13:57:44 大小:1.33 GB 文件数量:3 热度:6 最近下载:2025-09-19 05:52:09
    {"Importante Leeme!.vbs": 213, "1923.S02E01.2025.WEB-DL.1080p-Dual-Lat.mkv": 1609888832, "Descargar Películas, Series y Animes...url": 50}
创建时间: 2025-02-24 14:28:35 大小:1.5 GB 文件数量:3 热度:7 最近下载:2025-08-09 07:26:02
    {"Importante Leeme!.vbs": 213, "Descargar Películas, Series y Animes...url": 50, "Tu.amigo.y.vecino.Spider.Man.S01E09.2025.WEB-DL.1080p-Dual-Lat.mkv": 1556860881}
创建时间: 2025-02-24 14:39:11 大小:1.45 GB 文件数量:3 热度:5 最近下载:2025-09-18 18:41:11
    ... .E01.2025.WEB-DL.720p.ExKinoRay.mkv": 369371260, "Afroderevnya.S01.E02.2025.WEB-DL ... .720p.ExKinoRay.mkv": 341766614, "Afroderevnya.S01.E03.2025.WEB-DL ... .720p.ExKinoRay.mkv": 798237463, "Afroderevnya.S01.E04.2025.WEB-DL ...
创建时间: 2025-02-24 15:17:30 大小:4.38 GB 文件数量:8 热度:2 最近下载:2025-03-06 03:06:03
    {"Importante Leeme!.vbs": 213, "Descargar Películas, Series y Animes...url": 50, "Vinagre.de.manzana.S01E05.2025.WEB-DL.1080p-Dual-Lat.mkv": 3928317834}
创建时间: 2025-02-24 15:26:56 大小:3.66 GB 文件数量:3 热度:5 最近下载:2025-09-25 17:45:01
    {"Cheliuskin.Pervye.S01.E01.2025.WEB-DL.1080p.ExKinoRay.mkv": 1611709077}
创建时间: 2025-02-24 15:59:37 大小:1.5 GB 文件数量:1 热度:4 最近下载:2025-03-28 20:02:04
    {"Importante Leeme!.vbs": 213, "Descargar Películas, Series y Animes...url": 50, "Reacher.S03E02.2025.WEB-DL.1080p-Dual-Lat.mkv": 3235834709}
创建时间: 2025-02-24 16:16:20 大小:3.01 GB 文件数量:3 热度:3 最近下载:2025-04-23 21:51:04
    {"Importante Leeme!.vbs": 213, "Descargar Películas, Series y Animes...url": 50, "Separacion.S02E06.2025.WEB-DL.1080p-Dual-Lat.mkv": 4229818358}
创建时间: 2025-02-24 16:28:40 大小:3.94 GB 文件数量:3 热度:2 最近下载:2025-03-07 05:47:02
    ... .S05.2025.WEB-DL720p.Files-x.mkv": 6959790287, "02. Суперстар.S05.2025.WEB-DL720p ... .Files-x.mkv": 5314010023, "03. Суперстар.S05.2025.WEB-DL720p ... .Files-x.mkv": 6014636259, "04. Суперстар.S05.2025.WEB-DL720p ...
创建时间: 2025-02-24 17:50:57 大小:21.83 GB 文件数量:4 热度:4 最近下载:2025-03-28 00:35:04
    ... , "006 100-Days-of-Web-Development-Course-Companion-Site.url ... 14600, "022 Learning Check Web Forms [Day 29].html": 16385 ... ": 3645}, "08 - Understanding Responsive Web Design [Days 20 - 24]": {" ... _en.srt": 20735}, "35 - Web Services & Building Custom (REST) APIs ...
创建时间: 2025-02-24 18:24:12 大小:20.71 GB 文件数量:1375 热度:4 最近下载:2025-09-19 07:35:03
    {"cover.jpg": 1660915, "dr14-DR7.txt": 1498, "11. Lupaus.flac": 22486076, "04. Allikko.flac": 29176179, "02. Valsette.flac": 29915207, "05. Ilon haikeus.flac": 21367893, "10. Circlesquare.flac": 27056362, "12. Alarm Polska.flac": 33848262, "06. Game of ...
创建时间: 2025-02-24 18:59:16 大小:296.76 MB 文件数量:14 热度:5 最近下载:2025-09-18 22:57:03
    {"01. Маска.S06.2025.WEB-DLRip.Files-x.avi": 2214354944, "02. Маска.S06.2025.WEB-DLRip.Files-x.avi": 2365474816, "03. Маска.S06.2025.WEB-DLRip.Files-x.avi": 2322147328}
创建时间: 2025-02-24 19:32:43 大小:6.43 GB 文件数量:3 热度:2 最近下载:2025-03-07 00:07:03
    {"Single's Inferno S04E01.mkv": 2647885898, "Single's Inferno S04E02.mkv": 2951191739, "Single's Inferno S04E03.mkv": 2689684987, "Single's Inferno S04E04.mkv": 3711735267, "Single's Inferno S04E05.mkv": 3487381584, "Single's Inferno S04E06.mkv": ...
创建时间: 2025-02-24 19:40:58 大小:36.03 GB 文件数量:12 热度:3 最近下载:2025-03-08 10:51:03
    {"Importante Leeme!.vbs": 213, "Descargar Películas, Series y Animes...url": 50, "Yellowjackets.S03E03.2025.WEB-DL.1080p-Dual-Lat.mkv": 685132507}
创建时间: 2025-02-24 19:48:46 大小:653.39 MB 文件数量:3 热度:3 最近下载:2025-03-08 22:41:04
    {"cover.jpg": 314822, "04. Endless Flow.flac": 27197692, "01. Lamb Get Ready.flac": 34265918, "06. Blue Hour Ruins.flac": 64796333, "05. Salt and Sanctuary.flac": 44660967, "02. Industrial Witchcraft.flac": 24657676, "03. Hide and Seek the Truth.flac": ...
创建时间: 2025-02-25 08:19:47 大小:231.88 MB 文件数量:7 热度:2 最近下载:2025-03-08 02:24:02
    {"Importante Leeme!.vbs": 213, "Descargar Películas, Series y Animes...url": 50, "Sakamoto.Days.S01E07.2025.WEB-DL.1080p-Dual-Lat.mkv": 1128359361}
创建时间: 2025-02-25 09:14:00 大小:1.05 GB 文件数量:3 热度:2 最近下载:2025-03-06 14:27:03
    {"Shef.S07.01.2025.WEB-DL.1080p.ExKinoRay.mkv": 1791845339, "Shef.S07.02.2025.WEB-DL.1080p.ExKinoRay.mkv": 1695407141}
创建时间: 2025-02-25 09:18:36 大小:3.25 GB 文件数量:2 热度:3 最近下载:2025-03-08 20:15:02